Coalville, Iowa
Current Conditions -  °F | °C
As of 3:55 AM on Friday 31 Oct 2014 (Local Time) from KFOD Reporting Station
Clear Clear  
Wind Chill: 22°   Ceiling: Unl
Heat Index: 30°   Visibility: 10mi
Dew Point: 16°   Wind: 9mph
Humidity: 55%   Direction: 350°N
Pressure: 30.43"   Gusts: 18mph
Location:  42.5075°N, 94.2531°W
Report Text: KFOD 310855Z AUTO 35008G16KT 10SM CLR M01/M09 A3043 RMK AO1 52027
Loading
Personal Weather Stations






























Interactive Weather Map
Tropical Storm Tracking
New forecast layout! Learn more

10-Day Weather Forecast

Advertisements
Track Severe Weather on mobile